バンギ の空港の天気 - METARとTAF

バンギ・ムポコ国際空港 ( FEFF / BGF ) - 中央アフリカ バンギ
飛行場実況気象(Metar)
観測時間08/13 05:00 WAT (08/13 04:00 UTC)
風向・風速北北西 6m/s
視程8000m
天気現象
全天の4割程度の雲 雲底高度 210m
少しの雲 雲底高度 1010m
気温25℃
湿度94%
気圧1011hPa
METARFEFF 130400Z 34012KT 8000 TS SCT007 FEW033CB 25/24 Q1011 TEMPO 02020KT 4000 TSRA BKN007 FEW033CB
過去の天気等 Google飛行場航空写真 Wunderground天気予報

過去48時間のMETAR

飛行場予報(TAF)
発表時間: 8/13 00:00 WAT (8/12 23:00 UTC)
予報対象時間: 13日1時 WAT ~ 14日7時 WAT
風向・風速静穏
視程10km以上
なし
13日1時 WAT ~ 13日3時 WAT に 確率 30% で一時的に
風向・風速不定 2m/s
視程10km以上
天気現象
少しの積乱雲 雲底高度 1010m
13日5時 WAT ~ 13日7時 WAT に徐々に
視程4000m
天気現象もや
全天の8割程度の雲 雲底高度 150m
13日5時 WAT ~ 13日8時 WAT に 確率 30% で一時的に
視程800m
天気現象
13日9時 WAT から
風向・風速不定 2m/s
視程10km以上
天気現象運行に影響にある天気現象が終了
全天の4割程度の雲 雲底高度 300m
TAF FEFF 122300Z 1300/1406 00000KT CAVOK
PROB30 TEMPO 1300/1302 VRB04KT 9999 TS FEW033CB
BECMG 1304/1306 4000 BR BKN005
PROB30 TEMPO 1304/1307 0800 FG
FM130800 VRB03KT 9999 NSW SCT010